Time;durP1;ratioP1;P1;durP2;ratioP2;P2;SDS_P1;SDS_P2;PMS_P1;PMS_P2;Temp;Humidity;BMP_temperature;BMP_pressure;BME280_temperature;BME280_humidity;BME280_pressure;Samples;Min_cycle;Max_cycle;Signal;HPM_P1;HPM_P2
2022/02/13 00:00:19;;;;;;;2.77;2.53;;;1.10;99.90;;;;;;5011522;28;20931;-70
2022/02/13 00:02:45;;;;;;;0.80;0.53;;;1.10;99.90;;;;;;5011730;28;20429;-70
2022/02/13 00:05:12;;;;;;;0.70;0.50;;;1.10;99.90;;;;;;5012035;28;20231;-71
2022/02/13 00:07:37;;;;;;;0.70;0.40;;;1.10;99.90;;;;;;5011911;28;20498;-71
2022/02/13 00:10:05;;;;;;;0.70;0.50;;;1.10;99.90;;;;;;4994104;28;20570;-70
2022/02/13 00:12:31;;;;;;;0.70;0.50;;;1.10;99.90;;;;;;4994524;28;20637;-71
2022/02/13 00:14:57;;;;;;;0.70;0.50;;;1.10;99.90;;;;;;5011846;28;20525;-70
2022/02/13 00:17:23;;;;;;;0.70;0.50;;;1.10;99.90;;;;;;5011675;28;20234;-71
2022/02/13 00:19:49;;;;;;;0.70;0.50;;;1.10;99.90;;;;;;5011470;28;20200;-70
2022/02/13 00:22:17;;;;;;;0.70;0.50;;;1.00;99.90;;;;;;5011805;28;20423;-71
2022/02/13 00:24:43;;;;;;;0.70;0.50;;;1.00;99.90;;;;;;5011866;28;20455;-70
2022/02/13 00:27:09;;;;;;;0.70;0.40;;;1.00;99.90;;;;;;5011690;28;20422;-70
2022/02/13 00:29:35;;;;;;;0.70;0.40;;;1.00;99.90;;;;;;5011491;28;20455;-70
2022/02/13 00:32:01;;;;;;;0.70;0.40;;;1.00;99.90;;;;;;4994155;28;20946;-71
2022/02/13 00:34:27;;;;;;;0.70;0.50;;;1.00;99.90;;;;;;5011611;28;20496;-70
2022/02/13 00:36:53;;;;;;;0.70;0.50;;;1.00;99.90;;;;;;5011716;28;20442;-71
2022/02/13 00:39:18;;;;;;;1.27;1.17;;;1.00;99.90;;;;;;5011564;28;20302;-71
2022/02/13 00:41:44;;;;;;;0.70;0.50;;;1.00;99.90;;;;;;5011498;28;20168;-71
2022/02/13 00:44:10;;;;;;;0.80;0.60;;;0.90;99.90;;;;;;5011685;28;20629;-71
2022/02/13 00:46:35;;;;;;;0.87;0.60;;;0.90;99.90;;;;;;5011533;28;20473;-71
2022/02/13 00:49:02;;;;;;;0.70;0.50;;;0.90;99.90;;;;;;5011458;28;20214;-70
2022/02/13 00:51:27;;;;;;;0.70;0.50;;;0.90;99.90;;;;;;5011285;28;20188;-70
2022/02/13 00:53:53;;;;;;;0.70;0.47;;;0.90;99.90;;;;;;5011385;28;20421;-70
2022/02/13 00:56:20;;;;;;;0.70;0.50;;;0.90;99.90;;;;;;4993746;28;20179;-71
2022/02/13 00:58:46;;;;;;;0.70;0.60;;;0.90;99.90;;;;;;5011365;28;20203;-70
2022/02/13 01:01:12;;;;;;;0.70;0.50;;;0.90;99.90;;;;;;4994403;28;20435;-70
2022/02/13 01:03:37;;;;;;;2.20;1.33;;;0.90;99.90;;;;;;4997210;28;20183;-70
2022/02/13 01:06:03;;;;;;;1.00;0.80;;;0.90;99.90;;;;;;5014828;28;20798;-70
2022/02/13 01:08:29;;;;;;;0.80;0.80;;;0.90;99.90;;;;;;5014880;28;20215;-70
2022/02/13 01:10:55;;;;;;;0.70;0.40;;;0.90;99.90;;;;;;5014172;28;20611;-70
2022/02/13 01:13:20;;;;;;;0.80;0.77;;;1.00;99.90;;;;;;5014739;28;20430;-70
2022/02/13 01:15:46;;;;;;;0.80;0.80;;;1.00;99.90;;;;;;5014399;28;20172;-70
2022/02/13 01:18:12;;;;;;;3.33;1.13;;;1.00;99.90;;;;;;5014620;28;20243;-70
2022/02/13 01:20:38;;;;;;;0.70;0.47;;;1.00;99.90;;;;;;5013933;28;20191;-70
2022/02/13 01:23:04;;;;;;;0.70;0.50;;;1.00;99.90;;;;;;5014564;28;20422;-71
2022/02/13 01:25:29;;;;;;;0.70;0.50;;;1.00;99.90;;;;;;4996841;28;20176;-70
2022/02/13 01:27:55;;;;;;;0.70;0.47;;;1.00;99.90;;;;;;5014336;28;20663;-71
2022/02/13 01:30:20;;;;;;;0.90;0.70;;;1.00;99.90;;;;;;5014148;28;20602;-70
2022/02/13 01:32:46;;;;;;;0.70;0.50;;;1.00;99.90;;;;;;5014718;28;20178;-71
2022/02/13 01:35:11;;;;;;;0.70;0.60;;;1.00;99.90;;;;;;5014148;28;20202;-72
2022/02/13 01:37:38;;;;;;;0.70;0.60;;;1.00;99.90;;;;;;5014274;28;20172;-71
2022/02/13 01:40:05;;;;;;;0.83;0.83;;;1.00;99.90;;;;;;5013764;28;20277;-70
2022/02/13 01:42:30;;;;;;;0.70;0.50;;;1.00;99.90;;;;;;5014306;28;20426;-70
2022/02/13 01:44:57;;;;;;;0.80;0.80;;;1.00;99.90;;;;;;5014312;28;20773;-70
2022/02/13 01:47:23;;;;;;;0.70;0.50;;;1.00;99.90;;;;;;5014000;28;20201;-70
2022/02/13 01:49:49;;;;;;;0.70;0.50;;;0.90;99.90;;;;;;5013872;28;20473;-71
2022/02/13 01:52:14;;;;;;;0.70;0.47;;;0.80;99.90;;;;;;5014056;28;20179;-71
2022/02/13 01:54:41;;;;;;;0.70;0.50;;;0.90;99.90;;;;;;5013950;28;20178;-71
2022/02/13 01:57:10;;;;;;;0.70;0.50;;;0.80;99.90;;;;;;5014113;28;20168;-71
2022/02/13 01:59:36;;;;;;;0.70;0.40;;;0.80;99.90;;;;;;4996106;28;20462;-71
2022/02/13 02:02:02;;;;;;;0.90;0.60;;;0.70;99.90;;;;;;5013802;28;20430;-71
2022/02/13 02:04:28;;;;;;;1.63;1.33;;;0.60;99.90;;;;;;5012571;28;20432;-71
2022/02/13 02:06:54;;;;;;;0.70;0.53;;;0.60;99.90;;;;;;5013833;28;20418;-71
2022/02/13 02:09:23;;;;;;;1.10;0.90;;;0.60;99.90;;;;;;5013749;28;20176;-71
2022/02/13 02:11:49;;;;;;;0.70;0.50;;;0.60;99.90;;;;;;5013103;28;20484;-71
2022/02/13 02:14:14;;;;;;;0.70;0.50;;;0.50;99.90;;;;;;5012675;28;20874;-71
2022/02/13 02:16:40;;;;;;;5.80;1.80;;;0.60;99.90;;;;;;4995607;28;20206;-71
2022/02/13 02:19:09;;;;;;;0.70;0.40;;;0.60;99.90;;;;;;5013445;28;20218;-71
2022/02/13 02:21:36;;;;;;;0.70;0.47;;;0.60;99.90;;;;;;5013241;28;20230;-71
2022/02/13 02:24:02;;;;;;;0.70;0.40;;;0.60;99.90;;;;;;5013004;28;20508;-71
2022/02/13 02:26:28;;;;;;;0.70;0.47;;;0.60;99.90;;;;;;5012722;28;20426;-71
2022/02/13 02:28:53;;;;;;;1.67;0.97;;;0.60;99.90;;;;;;5011970;28;20427;-71
2022/02/13 02:31:19;;;;;;;0.80;0.80;;;0.60;99.90;;;;;;5012737;28;20207;-71
2022/02/13 02:33:45;;;;;;;0.70;0.50;;;0.60;99.90;;;;;;5013144;28;20185;-71
2022/02/13 02:36:18;;;;;;;0.70;0.50;;;0.60;99.90;;;;;;5012700;28;20184;-71
2022/02/13 02:38:44;;;;;;;0.70;0.50;;;0.60;99.90;;;;;;5013066;28;20224;-71
2022/02/13 02:41:10;;;;;;;0.70;0.50;;;0.60;99.90;;;;;;5012684;28;20443;-71
2022/02/13 02:43:36;;;;;;;1.00;0.80;;;0.60;99.90;;;;;;5014529;28;20437;-71
2022/02/13 02:46:02;;;;;;;0.70;0.40;;;0.60;99.90;;;;;;5019419;28;20991;-71
2022/02/13 02:48:27;;;;;;;0.70;0.40;;;0.50;99.90;;;;;;5012880;28;20294;-70
2022/02/13 02:50:53;;;;;;;0.70;0.50;;;0.60;99.90;;;;;;4994456;28;20217;-70
2022/02/13 02:53:18;;;;;;;0.70;0.40;;;0.50;99.90;;;;;;5011623;28;20193;-70
2022/02/13 02:55:44;;;;;;;0.70;0.50;;;0.50;99.90;;;;;;5012060;28;20232;-70
2022/02/13 02:58:10;;;;;;;0.70;0.40;;;0.50;99.90;;;;;;5012686;28;20758;-70
2022/02/13 03:00:35;;;;;;;0.70;0.50;;;0.40;99.90;;;;;;5012054;28;20194;-70
2022/02/13 03:03:01;;;;;;;0.70;0.40;;;0.40;99.90;;;;;;5018727;28;20652;-70
2022/02/13 03:05:26;;;;;;;0.70;0.50;;;0.30;99.90;;;;;;5014383;28;20653;-70
2022/02/13 03:07:52;;;;;;;0.87;0.77;;;0.20;99.90;;;;;;5012357;28;20171;-71
2022/02/13 03:10:17;;;;;;;0.70;0.40;;;0.20;99.90;;;;;;5006979;28;20697;-71
2022/02/13 03:12:43;;;;;;;0.70;0.47;;;0.10;99.90;;;;;;5012559;28;20200;-71
2022/02/13 03:15:08;;;;;;;0.70;0.50;;;0.00;99.90;;;;;;5012226;28;20227;-70
2022/02/13 03:17:34;;;;;;;0.70;0.40;;;0.00;99.90;;;;;;5012253;28;20165;-70
2022/02/13 03:20:00;;;;;;;0.97;0.60;;;-0.10;99.90;;;;;;5011361;28;20219;-70
2022/02/13 03:22:26;;;;;;;0.70;0.50;;;-0.10;99.90;;;;;;5012053;28;20172;-70
2022/02/13 03:24:58;;;;;;;0.70;0.63;;;-0.10;99.90;;;;;;5023417;28;20476;-71
2022/02/13 03:27:23;;;;;;;0.70;0.50;;;-0.10;99.90;;;;;;5014660;28;20219;-70
2022/02/13 03:29:49;;;;;;;0.80;0.60;;;-0.10;99.90;;;;;;5025806;28;20469;-71
2022/02/13 03:32:14;;;;;;;1.73;0.90;;;-0.10;99.90;;;;;;5012280;28;20211;-71
2022/02/13 03:34:40;;;;;;;0.70;0.50;;;-0.10;99.90;;;;;;4995138;28;20196;-70
2022/02/13 03:37:05;;;;;;;0.70;0.60;;;-0.10;99.90;;;;;;5013143;28;20251;-70
2022/02/13 03:39:31;;;;;;;0.70;0.43;;;0.00;99.90;;;;;;4995354;28;20211;-71
2022/02/13 03:41:56;;;;;;;0.70;0.40;;;-0.10;99.90;;;;;;4995225;28;20174;-70
2022/02/13 03:44:22;;;;;;;0.70;0.50;;;-0.10;99.90;;;;;;5013190;28;20176;-70
2022/02/13 03:46:47;;;;;;;0.70;0.40;;;-0.10;99.90;;;;;;5012743;28;20173;-70
2022/02/13 03:49:13;;;;;;;0.70;0.40;;;-0.10;99.90;;;;;;4994184;28;20168;-71
2022/02/13 03:51:38;;;;;;;0.70;0.50;;;-0.20;99.90;;;;;;5011561;28;20553;-70
2022/02/13 03:54:04;;;;;;;0.70;0.50;;;-0.20;99.90;;;;;;5011973;28;20207;-70
2022/02/13 03:56:29;;;;;;;0.70;0.40;;;-0.20;99.90;;;;;;5011812;28;20176;-70
2022/02/13 03:58:55;;;;;;;0.70;0.47;;;-0.20;99.90;;;;;;5012081;28;20203;-70
2022/02/13 04:01:21;;;;;;;0.70;0.50;;;-0.20;99.90;;;;;;5011757;28;20689;-70
2022/02/13 04:03:46;;;;;;;0.70;0.43;;;-0.20;99.90;;;;;;5011132;28;20262;-70
2022/02/13 04:06:12;;;;;;;0.70;0.50;;;-0.30;99.90;;;;;;5011852;28;20588;-70
2022/02/13 04:08:37;;;;;;;0.80;0.60;;;-0.40;99.90;;;;;;4993989;28;20169;-70
2022/02/13 04:11:03;;;;;;;0.70;0.40;;;-0.40;99.90;;;;;;5011322;28;20199;-70
2022/02/13 04:13:28;;;;;;;0.70;0.40;;;-0.50;99.90;;;;;;4994241;28;20168;-70
2022/02/13 04:15:54;;;;;;;0.70;0.50;;;-0.50;99.90;;;;;;5012247;28;20643;-71
2022/02/13 04:18:19;;;;;;;0.70;0.50;;;-0.50;99.90;;;;;;5012471;28;20275;-70
2022/02/13 04:20:45;;;;;;;1.00;0.60;;;-0.50;99.90;;;;;;5010918;28;20204;-70
2022/02/13 04:23:11;;;;;;;0.70;0.50;;;-0.40;99.90;;;;;;5010571;28;20668;-70
2022/02/13 04:25:37;;;;;;;0.70;0.40;;;-0.40;99.90;;;;;;5011855;28;20399;-71
2022/02/13 04:28:03;;;;;;;0.70;0.40;;;-0.40;99.90;;;;;;5011716;28;20179;-70
2022/02/13 04:30:29;;;;;;;0.70;0.60;;;-0.40;99.90;;;;;;5013417;28;20458;-70
2022/02/13 04:32:56;;;;;;;0.70;0.50;;;-0.50;99.90;;;;;;5017081;28;20447;-70
2022/02/13 04:35:22;;;;;;;0.70;0.40;;;-0.50;99.90;;;;;;5004078;28;20175;-70
2022/02/13 04:37:52;;;;;;;0.70;0.47;;;-0.60;99.90;;;;;;5014189;28;20415;-70
2022/02/13 04:40:18;;;;;;;0.70;0.50;;;-0.60;99.90;;;;;;5015024;28;20434;-70
2022/02/13 04:42:44;;;;;;;0.70;0.40;;;-0.70;99.90;;;;;;4997766;28;20420;-70
2022/02/13 04:45:10;;;;;;;0.70;0.40;;;-0.70;99.90;;;;;;4997601;28;20446;-70
2022/02/13 04:47:35;;;;;;;2.00;1.90;;;-0.70;99.90;;;;;;5015189;28;20539;-70
2022/02/13 04:50:01;;;;;;;0.87;0.87;;;-0.70;99.90;;;;;;5024984;28;20625;-70
2022/02/13 04:52:27;;;;;;;0.80;0.70;;;-0.70;99.90;;;;;;5019983;28;20256;-70
2022/02/13 04:54:52;;;;;;;0.70;0.40;;;-0.70;99.90;;;;;;5021256;28;20181;-70
2022/02/13 04:57:18;;;;;;;0.70;0.40;;;-0.70;99.90;;;;;;5018449;28;20198;-70
2022/02/13 04:59:43;;;;;;;2.73;1.37;;;-0.70;99.90;;;;;;4996954;28;20614;-70
2022/02/13 05:02:09;;;;;;;1.00;0.90;;;-0.80;99.90;;;;;;5018736;28;20659;-70
2022/02/13 05:04:34;;;;;;;0.70;0.50;;;-0.80;99.90;;;;;;5021684;28;20194;-70
2022/02/13 05:07:00;;;;;;;0.80;0.63;;;-0.80;99.90;;;;;;5022232;28;20263;-71
2022/02/13 05:09:26;;;;;;;0.70;0.60;;;-0.90;99.90;;;;;;5004663;28;20180;-71
2022/02/13 05:11:51;;;;;;;0.70;0.40;;;-0.90;99.90;;;;;;5017749;28;20188;-71
2022/02/13 05:14:17;;;;;;;0.90;0.77;;;-0.90;99.90;;;;;;5026004;28;20180;-71
2022/02/13 05:16:43;;;;;;;0.70;0.43;;;-0.90;99.90;;;;;;5011936;28;20258;-71
2022/02/13 05:19:08;;;;;;;0.70;0.40;;;-1.00;99.90;;;;;;5024146;28;20210;-70
2022/02/13 05:21:33;;;;;;;0.70;0.40;;;-1.00;99.90;;;;;;5007912;28;20562;-71
2022/02/13 05:23:59;;;;;;;0.70;0.40;;;-0.90;99.90;;;;;;5003803;28;20810;-70
2022/02/13 05:26:25;;;;;;;0.80;0.60;;;-0.90;99.90;;;;;;5024015;28;20184;-71
2022/02/13 05:28:54;;;;;;;0.70;0.40;;;-0.90;99.90;;;;;;5025034;28;20176;-71
2022/02/13 05:31:19;;;;;;;0.70;0.40;;;-0.90;99.90;;;;;;5003813;28;22173;-70
2022/02/13 05:33:45;;;;;;;0.70;0.40;;;-0.90;99.90;;;;;;5019479;28;20653;-70
2022/02/13 05:36:10;;;;;;;0.70;0.40;;;-0.90;99.90;;;;;;5020203;28;20534;-70
2022/02/13 05:38:36;;;;;;;1.93;0.90;;;-0.90;99.90;;;;;;5026176;28;20306;-70
2022/02/13 05:41:01;;;;;;;0.70;0.40;;;-0.90;99.90;;;;;;5025928;28;20203;-70
2022/02/13 05:43:28;;;;;;;0.70;0.40;;;-0.90;99.90;;;;;;5026673;28;20257;-70
2022/02/13 05:45:54;;;;;;;0.70;0.40;;;-0.90;99.90;;;;;;5025055;28;20250;-70
2022/02/13 05:48:20;;;;;;;0.80;0.70;;;-0.90;99.90;;;;;;5016878;28;20861;-71
2022/02/13 05:50:46;;;;;;;0.70;0.40;;;-1.00;99.90;;;;;;5023490;28;20549;-71
2022/02/13 05:53:11;;;;;;;0.70;0.40;;;-1.00;99.90;;;;;;5016754;28;20176;-71
2022/02/13 05:55:37;;;;;;;0.70;0.50;;;-0.90;99.90;;;;;;5028041;28;20226;-71
2022/02/13 05:58:02;;;;;;;0.70;0.50;;;-0.90;99.90;;;;;;5022907;28;20179;-71
2022/02/13 06:00:28;;;;;;;1.00;0.70;;;-0.90;99.90;;;;;;5022226;28;20712;-71
2022/02/13 06:02:54;;;;;;;0.70;0.60;;;-0.90;99.90;;;;;;5025789;28;20184;-71
2022/02/13 06:05:19;;;;;;;0.70;0.50;;;-0.90;99.90;;;;;;5016015;28;20188;-71
2022/02/13 06:07:45;;;;;;;0.70;0.50;;;-0.90;99.90;;;;;;5011480;28;20279;-71
2022/02/13 06:10:11;;;;;;;0.70;0.40;;;-0.90;99.90;;;;;;5024004;28;20200;-71
2022/02/13 06:12:37;;;;;;;0.77;0.70;;;-1.00;99.90;;;;;;5026327;28;20206;-71
2022/02/13 06:15:04;;;;;;;0.70;0.43;;;-1.00;99.90;;;;;;5027836;28;20473;-71
2022/02/13 06:17:30;;;;;;;0.70;0.40;;;-1.00;99.90;;;;;;5010016;28;20436;-71
2022/02/13 06:19:56;;;;;;;0.70;0.40;;;-1.00;99.90;;;;;;5023787;28;20556;-71
2022/02/13 06:22:21;;;;;;;0.70;0.50;;;-1.10;99.90;;;;;;5024544;28;20431;-71
2022/02/13 06:24:47;;;;;;;0.83;0.83;;;-1.10;99.90;;;;;;5005533;28;20175;-71
2022/02/13 06:27:13;;;;;;;0.70;0.47;;;-1.10;99.90;;;;;;5015629;28;20204;-71
2022/02/13 06:29:38;;;;;;;0.90;0.90;;;-1.10;99.90;;;;;;5003961;28;20504;-71
2022/02/13 06:32:04;;;;;;;1.03;0.70;;;-1.10;99.90;;;;;;5027466;28;20185;-71
2022/02/13 06:34:30;;;;;;;0.70;0.40;;;-1.20;99.90;;;;;;5017079;28;20660;-71
2022/02/13 06:36:55;;;;;;;0.70;0.40;;;-1.20;99.90;;;;;;5010218;28;20444;-70
2022/02/13 06:39:21;;;;;;;0.70;0.40;;;-1.20;99.90;;;;;;5006939;28;20200;-70
2022/02/13 06:41:46;;;;;;;0.70;0.50;;;-1.20;99.90;;;;;;4997787;28;20629;-70
2022/02/13 06:44:13;;;;;;;0.80;0.70;;;-1.20;99.90;;;;;;5006851;28;20241;-70
2022/02/13 06:46:40;;;;;;;0.70;0.40;;;-1.30;99.90;;;;;;4994783;28;20182;-71
2022/02/13 06:49:06;;;;;;;0.90;0.70;;;-1.30;99.90;;;;;;4998170;28;20473;-71
2022/02/13 06:51:32;;;;;;;0.70;0.43;;;-1.20;99.90;;;;;;5026819;28;20489;-70
2022/02/13 06:53:57;;;;;;;1.07;0.97;;;-1.20;99.90;;;;;;5018249;28;20449;-70
2022/02/13 06:56:23;;;;;;;0.80;0.60;;;-1.20;99.90;;;;;;5025428;28;20544;-70
2022/02/13 06:58:48;;;;;;;0.70;0.43;;;-1.10;99.90;;;;;;4995601;28;20251;-70
2022/02/13 07:01:14;;;;;;;0.70;0.40;;;-1.10;99.90;;;;;;4995826;28;20189;-70
2022/02/13 07:03:39;;;;;;;0.90;0.77;;;-1.10;99.90;;;;;;5013247;28;20188;-70
2022/02/13 07:06:07;;;;;;;0.70;0.50;;;-1.00;99.90;;;;;;4997034;28;20250;-70
2022/02/13 07:08:33;;;;;;;0.70;0.40;;;-0.90;99.90;;;;;;5016860;28;20226;-70
2022/02/13 07:10:58;;;;;;;0.70;0.50;;;-0.90;99.90;;;;;;4994937;28;20466;-70
2022/02/13 07:13:24;;;;;;;0.70;0.40;;;-0.80;99.90;;;;;;5012534;28;20836;-70
2022/02/13 07:15:50;;;;;;;0.70;0.47;;;-0.80;99.90;;;;;;5017732;28;20679;-70
2022/02/13 07:18:15;;;;;;;0.70;0.40;;;-0.70;99.90;;;;;;5019100;28;20208;-70
2022/02/13 07:20:41;;;;;;;2.80;2.60;;;-0.70;99.90;;;;;;5022514;28;20226;-70
2022/02/13 07:23:07;;;;;;;0.70;0.50;;;-0.60;99.90;;;;;;5021369;28;20186;-71
2022/02/13 07:25:32;;;;;;;0.70;0.40;;;-0.50;99.90;;;;;;5027018;28;20659;-71
2022/02/13 07:27:58;;;;;;;0.70;0.40;;;-0.40;99.90;;;;;;5020277;28;20213;-71
2022/02/13 07:30:23;;;;;;;0.70;0.43;;;-0.30;99.90;;;;;;5021483;28;20241;-71
2022/02/13 07:32:49;;;;;;;0.80;0.60;;;-0.20;99.90;;;;;;5021017;28;20212;-71
2022/02/13 07:35:15;;;;;;;0.70;0.50;;;-0.20;99.90;;;;;;5001218;28;20173;-71
2022/02/13 07:37:41;;;;;;;1.47;1.37;;;-0.10;99.90;;;;;;5026383;28;20175;-71
2022/02/13 07:40:08;;;;;;;0.70;0.40;;;0.00;99.90;;;;;;5017396;28;20508;-71
2022/02/13 07:42:34;;;;;;;0.70;0.40;;;0.10;99.90;;;;;;5022025;28;21034;-71
2022/02/13 07:44:59;;;;;;;1.00;0.90;;;0.30;99.90;;;;;;5020431;28;20552;-71
2022/02/13 07:47:25;;;;;;;0.70;0.50;;;0.40;99.90;;;;;;5021612;28;20566;-71
2022/02/13 07:49:51;;;;;;;0.70;0.40;;;0.50;99.90;;;;;;5016804;28;20206;-71
2022/02/13 07:52:17;;;;;;;0.70;0.50;;;0.60;99.90;;;;;;5014321;28;20183;-71
2022/02/13 07:54:42;;;;;;;0.70;0.50;;;0.70;99.90;;;;;;5023583;28;20756;-71
2022/02/13 07:57:08;;;;;;;0.70;0.50;;;0.80;99.90;;;;;;4993735;28;20181;-70
2022/02/13 07:59:34;;;;;;;0.70;0.47;;;1.00;99.90;;;;;;5022391;28;20200;-72
2022/02/13 08:02:00;;;;;;;0.70;0.50;;;1.20;99.90;;;;;;5012333;28;20251;-71
2022/02/13 08:04:26;;;;;;;0.70;0.40;;;1.40;99.90;;;;;;5012370;28;20180;-71
2022/02/13 08:06:52;;;;;;;0.70;0.50;;;1.60;99.90;;;;;;5012725;28;20556;-71
2022/02/13 08:09:17;;;;;;;1.77;1.67;;;1.80;99.90;;;;;;5012432;28;20892;-71
2022/02/13 08:11:43;;;;;;;1.47;0.83;;;2.00;99.90;;;;;;5015586;28;20707;-71
2022/02/13 08:14:09;;;;;;;0.80;0.80;;;2.30;99.90;;;;;;5016728;28;20279;-72
2022/02/13 08:16:34;;;;;;;0.70;0.50;;;2.70;99.90;;;;;;5023590;28;20572;-72
2022/02/13 08:19:00;;;;;;;0.70;0.50;;;3.10;99.90;;;;;;5007228;28;20215;-71
2022/02/13 08:21:26;;;;;;;1.53;1.43;;;3.70;99.90;;;;;;5015855;28;20641;-72
2022/02/13 08:23:53;;;;;;;0.70;0.60;;;4.20;99.90;;;;;;5015685;28;20437;-71
2022/02/13 08:26:19;;;;;;;0.70;0.60;;;4.70;99.90;;;;;;5015692;28;20429;-72
2022/02/13 08:28:46;;;;;;;0.70;0.50;;;5.30;99.90;;;;;;5015472;28;20462;-72
2022/02/13 08:31:13;;;;;;;0.83;0.70;;;5.80;99.90;;;;;;5013004;28;20600;-72
2022/02/13 08:33:40;;;;;;;0.70;0.60;;;6.40;99.90;;;;;;5008427;28;21007;-72
2022/02/13 08:36:06;;;;;;;0.83;0.60;;;7.00;99.90;;;;;;5005623;28;20500;-72
2022/02/13 08:38:31;;;;;;;0.97;0.93;;;7.50;99.90;;;;;;5024631;28;20595;-72
2022/02/13 08:40:57;;;;;;;1.00;0.90;;;7.90;99.90;;;;;;5016999;28;20249;-72
2022/02/13 08:43:22;;;;;;;0.70;0.60;;;8.30;99.90;;;;;;5021206;28;20184;-73
2022/02/13 08:45:50;;;;;;;1.30;1.20;;;8.70;99.90;;;;;;5024474;28;20540;-72
2022/02/13 08:48:18;;;;;;;0.90;0.70;;;9.10;99.90;;;;;;5009222;28;20545;-72
2022/02/13 08:50:44;;;;;;;1.20;1.10;;;9.60;99.90;;;;;;5016783;28;20903;-72
2022/02/13 08:53:10;;;;;;;0.80;0.70;;;9.90;99.90;;;;;;5022876;28;20414;-72
2022/02/13 08:55:37;;;;;;;1.30;1.00;;;10.30;96.50;;;;;;5029495;28;20515;-72
2022/02/13 08:58:03;;;;;;;0.97;0.87;;;10.60;94.20;;;;;;5006774;28;20606;-72
2022/02/13 09:00:29;;;;;;;1.07;0.97;;;11.00;92.60;;;;;;5020793;28;20457;-72
2022/02/13 09:02:54;;;;;;;8.83;1.03;;;11.30;91.40;;;;;;5027968;28;20191;-72
2022/02/13 09:05:20;;;;;;;3.90;1.37;;;11.80;87.60;;;;;;5012074;28;20180;-72
2022/02/13 09:07:45;;;;;;;1.17;1.07;;;12.10;84.20;;;;;;5014715;28;20179;-72
2022/02/13 09:10:15;;;;;;;1.37;0.90;;;12.50;79.50;;;;;;5014540;28;20196;-72
2022/02/13 09:12:42;;;;;;;0.97;0.87;;;12.80;76.10;;;;;;5014789;28;20180;-73
2022/02/13 09:15:08;;;;;;;1.17;1.07;;;13.10;74.80;;;;;;5016701;28;20562;-72
2022/02/13 09:17:34;;;;;;;0.93;0.83;;;13.40;71.60;;;;;;5027883;28;20438;-73
2022/02/13 09:20:00;;;;;;;0.80;0.60;;;13.60;69.40;;;;;;5025177;28;20494;-73
2022/02/13 09:22:26;;;;;;;2.60;1.17;;;13.80;68.30;;;;;;5026271;28;20502;-73
2022/02/13 09:24:52;;;;;;;1.70;0.97;;;13.90;66.50;;;;;;5027972;28;20418;-72
2022/02/13 09:27:18;;;;;;;0.97;0.87;;;14.00;65.80;;;;;;5024869;28;20180;-72
2022/02/13 09:29:44;;;;;;;2.30;1.47;;;14.10;65.00;;;;;;5019651;28;20230;-72
2022/02/13 09:32:10;;;;;;;8.83;2.20;;;14.20;65.20;;;;;;5018806;28;20467;-72
2022/02/13 09:34:35;;;;;;;0.80;0.80;;;14.10;65.50;;;;;;5027817;28;20422;-72
2022/02/13 09:37:02;;;;;;;0.90;0.67;;;14.10;63.90;;;;;;5002122;28;20226;-73
2022/02/13 09:39:29;;;;;;;1.73;1.63;;;14.10;64.30;;;;;;5021336;28;20287;-72
2022/02/13 09:41:55;;;;;;;2.10;1.33;;;14.30;62.50;;;;;;5019427;28;20795;-73
2022/02/13 09:44:21;;;;;;;1.80;1.70;;;14.40;63.40;;;;;;5026764;28;20423;-72
2022/02/13 09:46:47;;;;;;;1.03;0.87;;;14.70;61.40;;;;;;5022457;28;20625;-73
2022/02/13 09:49:17;;;;;;;1.17;1.07;;;14.90;59.60;;;;;;5012118;28;20782;-70
2022/02/13 09:51:43;;;;;;;1.13;1.03;;;15.10;59.70;;;;;;5002392;28;20935;-70
2022/02/13 09:54:09;;;;;;;1.17;1.07;;;15.20;58.70;;;;;;5023468;28;20442;-70
2022/02/13 09:56:35;;;;;;;1.27;1.17;;;15.20;58.50;;;;;;5024739;28;20179;-70
2022/02/13 09:59:01;;;;;;;5.63;2.27;;;15.40;58.40;;;;;;5029437;28;20230;-71
2022/02/13 10:01:35;;;;;;;2.30;1.90;;;15.70;58.70;;;;;;5030066;28;20192;-71
2022/02/13 10:04:00;;;;;;;2.67;1.40;;;16.00;58.30;;;;;;5024670;28;20451;-71
2022/02/13 10:06:26;;;;;;;4.00;1.20;;;16.50;58.10;;;;;;5023805;28;20427;-71
2022/02/13 10:08:54;;;;;;;1.57;1.13;;;16.80;56.70;;;;;;5020025;28;20179;-71
2022/02/13 10:11:25;;;;;;;1.10;0.93;;;17.30;56.20;;;;;;5024667;28;20693;-70
2022/02/13 10:13:50;;;;;;;1.97;1.10;;;17.60;54.70;;;;;;5025364;28;20901;-71
2022/02/13 10:16:24;;;;;;;5.20;1.43;;;17.90;53.30;;;;;;5002470;28;20526;-71
2022/02/13 10:19:07;;;;;;;2.00;1.60;;;18.20;52.20;;;;;;5025563;28;20204;-71
2022/02/13 10:21:50;;;;;;;0.80;0.60;;;18.10;51.10;;;;;;5005047;28;20489;-71
2022/02/13 10:24:25;;;;;;;1.97;1.70;;;18.60;51.20;;;;;;5006636;28;20447;-71
2022/02/13 10:26:57;;;;;;;1.23;1.03;;;18.90;51.20;;;;;;5003459;28;20441;-72
2022/02/13 10:29:27;;;;;;;3.33;1.63;;;19.20;50.30;;;;;;5025818;28;20444;-71
2022/02/13 10:32:21;;;;;;;3.07;1.80;;;19.40;49.60;;;;;;5011897;28;20443;-72
2022/02/13 10:35:12;;;;;;;2.43;2.23;;;19.70;49.70;;;;;;5013502;28;20500;-72
2022/02/13 10:38:00;;;;;;;1.87;1.77;;;20.10;49.30;;;;;;5017886;28;20943;-72
2022/02/13 10:40:28;;;;;;;1.20;1.10;;;20.40;48.60;;;;;;5004141;28;20463;-71
2022/02/13 10:43:04;;;;;;;1.10;0.90;;;20.60;48.20;;;;;;5019075;28;20430;-72
2022/02/13 10:45:31;;;;;;;0.97;0.90;;;20.80;47.70;;;;;;5023923;28;20477;-72
2022/02/13 10:48:07;;;;;;;1.30;1.20;;;20.90;47.10;;;;;;5018518;28;20437;-71
2022/02/13 10:50:35;;;;;;;1.50;1.40;;;20.90;47.30;;;;;;5016546;28;20459;-71
2022/02/13 10:53:02;;;;;;;1.57;1.47;;;20.70;47.20;;;;;;5010610;28;20452;-72
2022/02/13 10:55:38;;;;;;;1.30;1.03;;;20.50;47.60;;;;;;5068726;28;20536;-73
2022/02/13 10:58:05;;;;;;;1.47;1.37;;;20.50;47.50;;;;;;5069642;28;20467;-73
2022/02/13 11:00:31;;;;;;;1.53;0.90;;;20.10;47.50;;;;;;5069087;28;20961;-73
2022/02/13 11:03:07;;;;;;;3.53;2.50;;;19.70;47.40;;;;;;5067359;28;20428;-72
2022/02/13 11:05:33;;;;;;;1.00;0.90;;;19.70;48.10;;;;;;5048738;28;20417;-74
2022/02/13 11:08:05;;;;;;;1.13;0.97;;;19.90;48.40;;;;;;5066343;28;20447;-73
2022/02/13 11:10:36;;;;;;;1.10;0.87;;;20.10;48.60;;;;;;5066492;28;20444;-73
2022/02/13 11:13:03;;;;;;;1.97;1.87;;;20.50;48.00;;;;;;5068044;28;20416;-73
2022/02/13 11:15:31;;;;;;;5.10;2.13;;;20.80;47.70;;;;;;5068699;28;20455;-73
2022/02/13 11:18:05;;;;;;;2.40;2.20;;;20.90;47.90;;;;;;5048059;28;20426;-73
2022/02/13 11:20:32;;;;;;;4.20;1.03;;;21.00;48.50;;;;;;5028136;28;20600;-73
2022/02/13 11:23:23;;;;;;;1.30;0.93;;;21.30;48.20;;;;;;5033430;28;20423;-73
2022/02/13 11:25:59;;;;;;;1.33;0.87;;;21.90;47.40;;;;;;5068967;28;20424;-73
2022/02/13 11:28:52;;;;;;;3.07;2.20;;;22.30;43.30;;;;;;5044151;28;20413;-73
2022/02/13 11:31:32;;;;;;;1.00;0.70;;;22.60;43.30;;;;;;5053482;28;20810;-73
2022/02/13 11:33:59;;;;;;;1.27;1.13;;;22.90;41.90;;;;;;5061119;28;20523;-73
2022/02/13 11:36:46;;;;;;;0.97;0.77;;;22.80;41.10;;;;;;5045746;28;20421;-73
2022/02/13 11:39:31;;;;;;;1.40;1.03;;;22.20;40.70;;;;;;5037755;28;20517;-73
2022/02/13 11:42:01;;;;;;;0.80;0.70;;;21.50;40.80;;;;;;5046555;28;20791;-72
2022/02/13 11:44:40;;;;;;;2.10;1.00;;;21.10;41.20;;;;;;5046940;28;20436;-72
2022/02/13 11:47:12;;;;;;;4.20;1.17;;;20.80;42.00;;;;;;5048297;28;20490;-73
2022/02/13 11:50:06;;;;;;;1.30;1.20;;;20.40;42.00;;;;;;5042954;28;20597;-72
2022/02/13 11:52:34;;;;;;;2.90;0.90;;;20.20;42.30;;;;;;5035169;28;20422;-73
2022/02/13 11:55:04;;;;;;;2.80;1.37;;;20.20;42.60;;;;;;5047944;28;20463;-73
2022/02/13 11:57:32;;;;;;;3.80;0.77;;;20.20;43.30;;;;;;5049340;28;20764;-72
2022/02/13 11:59:58;;;;;;;0.90;0.63;;;20.00;43.00;;;;;;5066058;28;20472;-72
2022/02/13 12:02:36;;;;;;;1.10;0.90;;;19.60;43.70;;;;;;5059339;28;20453;-72
2022/02/13 12:05:10;;;;;;;2.40;1.40;;;19.60;44.10;;;;;;5046394;28;20554;-72
2022/02/13 12:07:45;;;;;;;0.90;0.70;;;19.60;44.50;;;;;;5037120;28;20433;-72
2022/02/13 12:10:26;;;;;;;1.13;0.80;;;20.10;44.50;;;;;;5027451;28;20992;-72
2022/02/13 12:13:02;;;;;;;1.10;0.77;;;20.40;44.40;;;;;;5027707;28;20484;-72
2022/02/13 12:15:28;;;;;;;0.77;0.63;;;20.50;43.80;;;;;;5033143;28;20535;-72
2022/02/13 12:18:11;;;;;;;0.70;0.50;;;20.80;44.10;;;;;;5034941;28;20863;-72
2022/02/13 12:20:38;;;;;;;2.00;1.80;;;21.10;44.50;;;;;;5054294;28;20597;-72
2022/02/13 12:23:06;;;;;;;1.20;0.90;;;21.20;44.70;;;;;;5042895;28;20418;-72
2022/02/13 12:25:33;;;;;;;1.10;0.80;;;21.00;44.80;;;;;;5032458;28;20477;-72
2022/02/13 12:27:59;;;;;;;1.33;1.23;;;20.60;44.80;;;;;;5027711;28;20429;-72
2022/02/13 12:30:26;;;;;;;1.00;0.90;;;20.20;45.40;;;;;;5027656;28;21131;-72
2022/02/13 12:32:59;;;;;;;1.10;1.00;;;19.90;45.60;;;;;;5043603;28;20175;-72
2022/02/13 12:35:33;;;;;;;0.90;0.70;;;19.60;45.70;;;;;;5039860;28;20454;-72
2022/02/13 12:37:59;;;;;;;3.83;0.80;;;19.40;46.20;;;;;;5035373;28;20411;-72
2022/02/13 12:40:28;;;;;;;1.13;1.03;;;19.40;46.10;;;;;;5030327;28;20477;-73
2022/02/13 12:43:02;;;;;;;0.80;0.70;;;19.70;46.60;;;;;;5031977;28;20477;-73
2022/02/13 12:45:30;;;;;;;0.80;0.70;;;20.20;47.30;;;;;;5028261;28;20456;-73
2022/02/13 12:48:02;;;;;;;1.17;0.83;;;20.20;47.50;;;;;;5033959;28;20422;-73
2022/02/13 12:50:30;;;;;;;0.80;0.60;;;20.30;46.90;;;;;;5024319;28;20445;-73